Nearby METAR Reports

 

GCLP - Las Palmas/Gando, Spain
Distance from station: NE 26km
Updated: 20/10/2019 01:00
Partly cloudy
Partly cloudy
 Wind from N
Wind: N 26 km/h
Temperature: 22°C
Dew Point: 18°C
Humidity: 78%
Barometer: 1016 hPa
Clouds: Partly cloudy
Visibility: 10 km
Cloud details: Partly cloudy 914 m
2019/10/20 01:00 GCLP 200100Z 36014KT 9999 SCT030 22/18 Q1016 NOSIG
GCTS - Tenerife Sur/Rei, Spain
Distance from station: WNW 102km
Updated: 20/10/2019 01:00
Few Clouds
Few Clouds
 Wind from NW
Wind: NW 11 km/h
Temperature: 20°C
Dew Point: 15°C
Humidity: 73%
Barometer: 1016 hPa
Clouds: Few Clouds
Visibility: 10 km
Cloud details: Few Clouds 914 m
2019/10/20 01:00 GCTS 200100Z 31006KT 9999 FEW030 20/15 Q1016 NOSIG
 
GCXO - Tenerife/Los Rod, Spain
Distance from station: NW 110km
Updated: 20/10/2019 01:00
Mostly cloudy
Mostly cloudy
 Wind from WNW
Wind: WNW 24 km/h
Temperature: 17°C
Dew Point: 14°C
Humidity: 83%
Barometer: 1019 hPa
Clouds: Mostly cloudy
Visibility: 10 km
Cloud details: Mostly cloudy 335 m
2019/10/20 01:00 GCXO 200100Z AUTO 29013KT 9999 BKN011 17/14 Q1019
GCGM - La Gomera Arpt, Spain
Distance from station: W 164km
Updated: 20/10/2019 01:00
Clear
Clear
 Wind from W
Wind: W 7 km/h
Temperature: 20°C
Dew Point: 15°C
Humidity: 73%
Barometer: 1017 hPa
Clouds: Clear
Visibility: 10 km
2019/10/20 01:00 GCGM 200100Z AUTO 26004KT 9999 NCD 20/15 Q1017 RMK R09/28003KT 250V320 ARP/27003KT
 
GCFV - Fuerteventura Ar, Spain
Distance from station: ENE 183km
Updated: 20/10/2019 01:00
Clear
Clear
 Wind from N
Wind: N 19 km/h
Temperature: 22°C
Dew Point: 19°C
Humidity: 83%
Barometer: 1015 hPa
Clouds: Clear
Visibility: 10 km
2019/10/20 01:00 GCFV 200100Z AUTO 36010KT 9999 NCD 22/19 Q1015
GCHI - Hierro Airport, Spain
Distance from station: W 226km
Updated: 20/10/2019 01:00
Few Clouds
Few Clouds
 Wind from N
Wind: N 30 km/h
Temperature: 22°C
Dew Point: 18°C
Humidity: 78%
Barometer: 1017 hPa
Clouds: Few Clouds
Visibility: 10 km
Cloud details: Few Clouds 671 m
2019/10/20 01:00 GCHI 200100Z AUTO 35016KT 9999 FEW022 22/18 Q1017
 
GCLA - La Palma Airport, Spain
Distance from station: WNW 233km
Updated: 20/10/2019 01:00
Clear
Clear
 Wind from WNW
Wind: WNW 7 km/h
Temperature: 21°C
Dew Point: 14°C
Humidity: 64%
Barometer: 1017 hPa
Clouds: Clear
Visibility: 10 km
2019/10/20 01:00 GCLA 200100Z AUTO 29004KT 250V320 9999 NCD 21/14 Q1017
GCRR - Arrecife/Lanzaro, Spain
Distance from station: NE 234km
Updated: 20/10/2019 01:00
Clear
Clear
 Wind from N
Wind: N 20 km/h
Temperature: 22°C
Dew Point: 19°C
Humidity: 83%
Barometer: 1015 hPa
Clouds: Clear
Visibility: 10 km
2019/10/20 01:00 GCRR 200100Z AUTO 01011KT 340V040 9999 NCD 22/19 Q1015
 
LPMA - Funchal/Madeira, Portugal
Distance from station: NNW 556km
Updated: 20/10/2019 01:00
Mostly cloudy
Mostly cloudy
 Wind from N
Wind: N 31 km/h
Temperature: 20°C
Dew Point: 14°C
Humidity: 69%
Barometer: 1017 hPa
Clouds: Mostly cloudy
Visibility: 10 km
Cloud details: Mostly cloudy 457 m
2019/10/20 01:00 LPMA 200100Z 36017KT 9999 BKN015 20/14 Q1017
LPPS - Porto Santo Isla, Portugal
Distance from station: N 594km
Updated: 20/10/2019 01:00
Partly cloudy
Partly cloudy
 Wind from NNE
Wind: NNE 19 km/h
Temperature: 19°C
Dew Point: 13°C
Humidity: 68%
Barometer: 1018 hPa
Clouds: Partly cloudy
Visibility: 10 km
Cloud details: Partly cloudy 427 m
2019/10/20 01:00 LPPS 200100Z 02010KT 9999 SCT014 19/13 Q1018